Time;durP1;ratioP1;P1;durP2;ratioP2;P2;SDS_P1;SDS_P2;PMS_P1;PMS_P2;Temp;Humidity;BMP_temperature;BMP_pressure;BME280_temperature;BME280_humidity;BME280_pressure;Samples;Min_cycle;Max_cycle;Signal;HPM_P1;HPM_P2
2022/09/22 00:00:55;;;;;;;7.87;2.40;;;10.30;99.90;;;;;;7391482;19;20130;-77
2022/09/22 00:03:21;;;;;;;6.73;2.27;;;10.20;99.90;;;;;;7391424;19;20195;-80
2022/09/22 00:05:46;;;;;;;3.60;1.90;;;10.20;99.90;;;;;;7390751;19;20722;-79
2022/09/22 00:08:12;;;;;;;4.30;2.00;;;10.60;99.90;;;;;;7387759;19;20242;-79
2022/09/22 00:10:38;;;;;;;4.23;2.33;;;10.50;99.90;;;;;;7385747;19;20158;-79
2022/09/22 00:13:03;;;;;;;4.33;2.70;;;10.30;99.90;;;;;;7388662;19;20162;-79
2022/09/22 00:15:29;;;;;;;4.23;2.57;;;10.40;99.90;;;;;;7388991;19;20221;-80
2022/09/22 00:17:55;;;;;;;4.27;2.47;;;10.50;99.90;;;;;;7386972;19;20158;-79
2022/09/22 00:20:21;;;;;;;2.50;2.07;;;10.60;99.90;;;;;;7391146;19;20146;-79
2022/09/22 00:22:50;;;;;;;3.97;2.27;;;10.40;99.90;;;;;;7390049;19;20135;-78
2022/09/22 00:25:17;;;;;;;3.47;1.90;;;10.00;99.90;;;;;;7389700;19;20181;-79
2022/09/22 00:27:43;;;;;;;3.73;2.10;;;10.20;99.90;;;;;;7387915;19;20258;-79
2022/09/22 00:30:09;;;;;;;2.90;2.20;;;10.00;99.90;;;;;;7391548;19;20151;-79
2022/09/22 00:32:39;;;;;;;3.33;1.93;;;10.00;99.90;;;;;;7387988;19;20149;-80
2022/09/22 00:35:05;;;;;;;2.50;1.83;;;10.40;99.90;;;;;;7390170;19;20884;-80
2022/09/22 00:37:31;;;;;;;2.53;2.10;;;11.00;99.90;;;;;;7396835;19;20143;-79
2022/09/22 00:39:57;;;;;;;4.30;2.30;;;11.20;99.90;;;;;;7392818;19;20157;-79
2022/09/22 00:42:24;;;;;;;3.97;2.13;;;11.20;99.90;;;;;;7395579;19;20139;-79
2022/09/22 00:44:50;;;;;;;3.03;2.00;;;11.00;99.90;;;;;;7396636;19;20142;-79
2022/09/22 00:47:33;;;;;;;3.70;1.83;;;10.60;99.90;;;;;;7395272;19;20932;-79
2022/09/22 00:50:23;;;;;;;3.27;2.00;;;10.80;99.90;;;;;;7396023;19;20142;-79
2022/09/22 00:53:02;;;;;;;5.63;2.07;;;11.10;99.90;;;;;;7392340;19;21045;-79
2022/09/22 00:55:45;;;;;;;1.97;1.70;;;11.30;99.90;;;;;;7397900;19;20134;-79
2022/09/22 00:58:18;;;;;;;2.83;1.77;;;11.40;99.90;;;;;;7395490;19;20134;-79
2022/09/22 01:00:44;;;;;;;5.27;1.80;;;11.40;99.90;;;;;;7394840;19;20936;-80
2022/09/22 01:03:18;;;;;;;2.23;1.77;;;11.00;99.90;;;;;;7396612;19;20517;-80
2022/09/22 01:05:47;;;;;;;1.67;1.40;;;10.60;99.90;;;;;;7394046;19;20138;-79
2022/09/22 01:08:14;;;;;;;3.57;2.03;;;10.50;99.90;;;;;;7394630;19;20145;-79
2022/09/22 01:10:40;;;;;;;3.23;1.83;;;10.20;99.90;;;;;;7394447;19;20143;-79
2022/09/22 01:13:16;;;;;;;2.60;1.90;;;10.60;99.90;;;;;;7392762;19;20471;-79
2022/09/22 01:15:57;;;;;;;2.57;1.70;;;11.00;99.90;;;;;;7394174;19;20151;-80
2022/09/22 01:18:31;;;;;;;4.60;1.87;;;11.00;99.90;;;;;;7394574;19;20134;-79
2022/09/22 01:21:26;;;;;;;5.87;1.90;;;10.90;99.90;;;;;;7396662;19;20138;-79
2022/09/22 01:24:29;;;;;;;3.37;2.13;;;11.10;99.90;;;;;;7393526;19;20142;-80
2022/09/22 01:27:02;;;;;;;4.57;2.50;;;11.10;99.90;;;;;;7397209;19;20158;-79
2022/09/22 01:30:05;;;;;;;2.93;1.67;;;10.90;99.90;;;;;;7395553;19;20131;-79
2022/09/22 01:32:53;;;;;;;3.80;1.83;;;11.00;99.90;;;;;;7394492;19;20130;-81
2022/09/22 01:35:53;;;;;;;4.00;2.17;;;11.00;99.90;;;;;;7393948;19;20164;-80
2022/09/22 01:38:36;;;;;;;3.33;2.10;;;11.20;99.90;;;;;;7392053;19;20134;-79
2022/09/22 01:41:46;;;;;;;3.57;2.70;;;11.30;99.90;;;;;;7394688;19;20150;-79
2022/09/22 01:44:20;;;;;;;4.00;2.10;;;11.00;99.90;;;;;;7395983;19;20134;-79
2022/09/22 01:47:10;;;;;;;7.60;3.13;;;11.00;99.90;;;;;;7392607;19;20154;-79
2022/09/22 01:49:42;;;;;;;7.17;2.60;;;11.10;99.90;;;;;;7394823;19;20138;-80
2022/09/22 01:52:27;;;;;;;3.13;2.10;;;11.10;99.90;;;;;;7393183;19;20175;-79
2022/09/22 01:55:05;;;;;;;4.73;2.33;;;11.20;99.90;;;;;;7396093;19;20130;-79
2022/09/22 01:57:43;;;;;;;2.60;2.03;;;11.00;99.90;;;;;;7396863;19;20143;-79
2022/09/22 02:00:10;;;;;;;5.40;2.63;;;11.00;99.90;;;;;;7395225;19;20138;-79
2022/09/22 02:03:06;;;;;;;3.27;2.13;;;11.10;99.90;;;;;;7392822;19;20135;-79
2022/09/22 02:05:48;;;;;;;4.90;2.63;;;11.20;99.90;;;;;;7392257;19;20210;-78
2022/09/22 02:08:47;;;;;;;4.57;2.50;;;11.20;99.90;;;;;;7394804;19;20138;-82
2022/09/22 02:11:17;;;;;;;4.53;2.37;;;11.20;99.90;;;;;;7391356;19;20150;-77
2022/09/22 02:13:45;;;;;;;3.93;2.23;;;10.70;99.90;;;;;;7391416;19;20142;-78
2022/09/22 02:16:13;;;;;;;4.13;2.20;;;10.50;99.90;;;;;;7392590;19;20164;-78
2022/09/22 02:18:48;;;;;;;3.17;2.17;;;10.70;99.90;;;;;;7392926;19;20157;-78
2022/09/22 02:21:15;;;;;;;2.90;2.00;;;10.70;99.90;;;;;;7393824;19;20587;-79
2022/09/22 02:23:43;;;;;;;3.00;2.13;;;10.90;99.90;;;;;;7393655;19;20777;-78
2022/09/22 02:26:14;;;;;;;5.33;2.30;;;11.00;99.90;;;;;;7390973;19;20627;-79
2022/09/22 02:28:42;;;;;;;3.37;1.87;;;10.60;99.90;;;;;;7392423;19;20171;-80
2022/09/22 02:31:09;;;;;;;3.10;2.07;;;10.60;99.90;;;;;;7391950;19;20138;-79
2022/09/22 02:33:37;;;;;;;4.33;1.97;;;10.50;99.90;;;;;;7394627;19;20138;-79
2022/09/22 02:36:23;;;;;;;3.03;2.07;;;10.50;99.90;;;;;;7392695;19;20159;-79
2022/09/22 02:39:10;;;;;;;2.73;1.70;;;10.30;99.90;;;;;;7392172;19;20142;-78
2022/09/22 02:42:10;;;;;;;2.20;1.60;;;10.50;99.90;;;;;;7393667;19;20138;-79
2022/09/22 02:44:58;;;;;;;1.83;1.70;;;10.70;99.90;;;;;;7386733;19;20178;-79
2022/09/22 02:47:35;;;;;;;2.60;1.47;;;10.80;99.90;;;;;;7390391;19;20147;-80
2022/09/22 02:50:05;;;;;;;2.67;1.80;;;10.70;99.90;;;;;;7393809;19;20142;-79
2022/09/22 02:52:31;;;;;;;2.83;1.60;;;10.20;99.90;;;;;;7391182;19;20147;-79
2022/09/22 02:54:57;;;;;;;2.27;1.50;;;10.40;99.90;;;;;;7392904;19;20146;-80
2022/09/22 02:57:23;;;;;;;2.53;1.70;;;10.30;99.90;;;;;;7393140;19;20158;-77
2022/09/22 02:59:48;;;;;;;2.83;2.03;;;10.40;99.90;;;;;;7392863;19;20134;-78
2022/09/22 03:02:14;;;;;;;3.40;1.97;;;10.60;99.90;;;;;;7391019;19;20157;-78
2022/09/22 03:04:40;;;;;;;2.70;1.70;;;10.60;99.90;;;;;;7389887;19;20185;-77
2022/09/22 03:07:06;;;;;;;1.80;1.60;;;10.80;99.90;;;;;;7392456;19;20139;-77
2022/09/22 03:09:32;;;;;;;2.23;1.63;;;10.70;99.90;;;;;;7388443;19;20205;-77
2022/09/22 03:11:58;;;;;;;2.53;1.57;;;10.40;99.90;;;;;;7389712;19;20143;-77
2022/09/22 03:14:24;;;;;;;2.40;1.70;;;10.30;99.90;;;;;;7388627;19;20151;-77
2022/09/22 03:16:49;;;;;;;2.27;1.40;;;10.20;99.90;;;;;;7391228;19;20563;-77
2022/09/22 03:19:16;;;;;;;2.20;1.60;;;10.00;99.90;;;;;;7388832;19;20212;-77
2022/09/22 03:21:42;;;;;;;3.10;1.57;;;10.00;99.90;;;;;;7391057;19;20202;-77
2022/09/22 03:24:08;;;;;;;3.60;1.70;;;10.30;99.90;;;;;;7389280;19;20972;-78
2022/09/22 03:26:34;;;;;;;3.03;1.67;;;9.80;99.90;;;;;;7390363;19;20130;-76
2022/09/22 03:29:00;;;;;;;6.40;1.70;;;9.60;99.90;;;;;;7390287;19;20498;-77
2022/09/22 03:31:26;;;;;;;2.67;1.60;;;10.00;99.90;;;;;;7390843;19;20154;-77
2022/09/22 03:33:52;;;;;;;1.93;1.73;;;10.00;99.90;;;;;;7391039;19;20134;-77
2022/09/22 03:36:18;;;;;;;1.67;1.57;;;9.60;99.90;;;;;;7392867;19;20130;-77
2022/09/22 03:38:44;;;;;;;2.30;1.60;;;9.60;99.90;;;;;;7388978;19;20484;-78
2022/09/22 03:41:10;;;;;;;1.77;1.60;;;9.90;99.90;;;;;;7390237;19;20169;-77
2022/09/22 03:43:35;;;;;;;2.40;1.60;;;10.10;99.90;;;;;;7391314;19;20138;-78
2022/09/22 03:46:02;;;;;;;4.97;1.70;;;10.20;99.90;;;;;;7389787;19;20712;-77
2022/09/22 03:48:28;;;;;;;4.13;1.87;;;9.90;99.90;;;;;;7389072;19;20147;-77
2022/09/22 03:50:57;;;;;;;2.10;1.90;;;9.90;99.90;;;;;;7390361;19;20580;-77
2022/09/22 03:53:23;;;;;;;3.60;2.13;;;10.10;99.90;;;;;;7387477;19;20157;-77
2022/09/22 03:56:03;;;;;;;5.37;2.90;;;10.30;99.90;;;;;;7388662;19;20157;-77
2022/09/22 03:58:29;;;;;;;3.23;2.10;;;10.30;99.90;;;;;;7387479;19;20145;-76
2022/09/22 04:00:54;;;;;;;3.90;2.17;;;10.30;99.90;;;;;;7389353;19;20130;-78
2022/09/22 04:03:23;;;;;;;5.43;2.73;;;10.20;99.90;;;;;;7390054;19;20157;-78
2022/09/22 04:05:50;;;;;;;3.53;2.30;;;10.30;99.90;;;;;;7388127;19;20145;-77
2022/09/22 04:08:16;;;;;;;3.17;2.30;;;10.30;99.90;;;;;;7388455;19;20134;-77
2022/09/22 04:10:44;;;;;;;9.73;4.90;;;10.30;99.90;;;;;;7390068;19;20135;-77
2022/09/22 04:13:10;;;;;;;3.33;2.90;;;10.10;99.90;;;;;;7394009;19;20138;-77
2022/09/22 04:15:36;;;;;;;3.00;2.47;;;9.80;99.90;;;;;;7396245;19;20238;-77
2022/09/22 04:18:02;;;;;;;3.73;2.43;;;9.90;99.90;;;;;;7394260;19;20567;-77
2022/09/22 04:20:29;;;;;;;5.17;2.60;;;10.20;99.90;;;;;;7395012;19;20158;-77
2022/09/22 04:22:55;;;;;;;4.83;2.33;;;9.90;99.90;;;;;;7396322;19;20254;-77
2022/09/22 04:25:20;;;;;;;2.87;2.10;;;9.80;99.90;;;;;;7394617;19;20146;-78
2022/09/22 04:27:46;;;;;;;4.13;2.80;;;10.10;99.90;;;;;;7395420;19;20139;-77
2022/09/22 04:30:12;;;;;;;4.77;2.80;;;10.00;99.90;;;;;;7393382;19;20142;-77
2022/09/22 04:32:38;;;;;;;3.47;2.33;;;9.60;99.90;;;;;;7394381;19;20859;-77
2022/09/22 04:35:05;;;;;;;5.57;2.40;;;9.60;99.90;;;;;;7397406;19;20134;-77
2022/09/22 04:37:30;;;;;;;3.83;2.50;;;9.50;99.90;;;;;;7395611;19;20143;-77
2022/09/22 04:39:58;;;;;;;3.27;2.40;;;9.90;99.90;;;;;;7397232;19;20138;-78
2022/09/22 04:42:25;;;;;;;3.53;2.43;;;9.90;99.90;;;;;;7396480;19;20485;-78
2022/09/22 04:44:51;;;;;;;3.47;2.53;;;9.70;99.90;;;;;;7394848;19;20625;-79
2022/09/22 04:47:17;;;;;;;3.50;2.60;;;9.60;99.90;;;;;;7394902;19;20131;-77
2022/09/22 04:49:42;;;;;;;4.67;2.17;;;9.90;99.90;;;;;;7393717;19;20158;-78
2022/09/22 04:52:08;;;;;;;2.70;2.20;;;9.90;99.90;;;;;;7394063;19;20654;-78
2022/09/22 04:54:34;;;;;;;2.93;2.40;;;9.80;99.90;;;;;;7394704;19;20173;-78
2022/09/22 04:57:01;;;;;;;3.63;2.40;;;9.90;99.90;;;;;;7397235;19;20138;-77
2022/09/22 04:59:28;;;;;;;3.80;2.20;;;9.60;99.90;;;;;;7396161;19;20135;-79
2022/09/22 05:01:54;;;;;;;3.10;2.03;;;9.30;99.90;;;;;;7395816;19;20796;-77
2022/09/22 05:04:20;;;;;;;3.70;2.40;;;9.20;99.90;;;;;;7395666;19;20145;-79
2022/09/22 05:06:46;;;;;;;4.47;2.53;;;9.50;99.90;;;;;;7394082;19;20143;-78
2022/09/22 05:09:13;;;;;;;4.30;2.40;;;9.60;99.90;;;;;;7395037;19;20599;-79
2022/09/22 05:11:38;;;;;;;4.00;2.77;;;9.50;99.90;;;;;;7392471;19;20143;-78
2022/09/22 05:14:04;;;;;;;3.40;2.33;;;9.30;99.90;;;;;;7393808;19;20226;-77
2022/09/22 05:16:31;;;;;;;3.43;2.53;;;9.10;99.90;;;;;;7393553;19;20289;-77
2022/09/22 05:18:57;;;;;;;2.43;2.00;;;9.10;99.90;;;;;;7393139;19;20134;-77
2022/09/22 05:21:22;;;;;;;2.77;2.03;;;9.20;99.90;;;;;;7394675;19;20164;-77
2022/09/22 05:23:48;;;;;;;3.17;2.10;;;8.90;99.90;;;;;;7393851;19;20973;-78
2022/09/22 05:26:14;;;;;;;5.03;2.87;;;8.70;99.90;;;;;;7395628;19;20133;-78
2022/09/22 05:28:40;;;;;;;3.77;2.60;;;9.10;99.90;;;;;;7394644;19;20612;-77
2022/09/22 05:31:06;;;;;;;2.70;2.23;;;9.40;99.90;;;;;;7391113;19;20130;-79
2022/09/22 05:33:31;;;;;;;2.87;2.17;;;9.70;99.90;;;;;;7392559;19;20142;-80
2022/09/22 05:35:57;;;;;;;5.73;3.03;;;9.80;99.90;;;;;;7392239;19;20539;-80
2022/09/22 05:38:23;;;;;;;5.30;2.77;;;9.90;99.90;;;;;;7393475;19;20165;-80
2022/09/22 05:40:49;;;;;;;5.03;2.73;;;10.00;99.90;;;;;;7395181;19;20865;-79
2022/09/22 05:43:15;;;;;;;5.90;3.20;;;10.10;99.90;;;;;;7394809;19;20498;-80
2022/09/22 05:45:42;;;;;;;6.90;3.70;;;10.10;99.90;;;;;;7394495;19;20130;-80
2022/09/22 05:48:08;;;;;;;7.30;3.50;;;10.20;99.90;;;;;;7393126;19;20478;-80
2022/09/22 05:50:34;;;;;;;5.20;2.90;;;10.30;99.90;;;;;;7390363;19;20130;-79
2022/09/22 05:53:09;;;;;;;4.43;2.80;;;10.30;99.90;;;;;;7386933;19;20139;-81
2022/09/22 05:55:40;;;;;;;5.50;3.37;;;10.40;99.90;;;;;;7391305;19;20138;-80
2022/09/22 05:58:08;;;;;;;7.63;3.67;;;10.30;99.90;;;;;;7387880;19;20146;-78
2022/09/22 06:00:33;;;;;;;5.60;3.47;;;10.30;99.90;;;;;;7389213;19;20170;-78
2022/09/22 06:02:59;;;;;;;10.57;3.07;;;10.50;99.90;;;;;;7393526;19;21043;-77
2022/09/22 06:05:28;;;;;;;5.33;3.07;;;10.30;99.90;;;;;;7395969;19;20134;-78
2022/09/22 06:08:00;;;;;;;7.37;4.07;;;10.20;99.90;;;;;;7392663;19;20482;-79
2022/09/22 06:10:26;;;;;;;8.37;3.37;;;10.00;99.90;;;;;;7393068;19;20159;-77
2022/09/22 06:13:04;;;;;;;6.57;3.50;;;9.60;99.90;;;;;;7392162;19;20766;-80
2022/09/22 06:15:32;;;;;;;7.20;3.20;;;9.90;99.90;;;;;;7392938;19;20134;-80
2022/09/22 06:17:59;;;;;;;9.07;3.53;;;9.70;99.90;;;;;;7390700;19;20478;-79
2022/09/22 06:20:25;;;;;;;5.93;3.23;;;9.70;99.90;;;;;;7391597;19;20905;-78
2022/09/22 06:22:51;;;;;;;7.37;3.67;;;10.00;99.90;;;;;;7392936;19;20158;-79
2022/09/22 06:25:19;;;;;;;6.90;3.60;;;10.20;99.90;;;;;;7391054;19;20181;-79
2022/09/22 06:27:46;;;;;;;5.40;3.40;;;10.10;99.90;;;;;;7393602;19;20169;-79
2022/09/22 06:30:12;;;;;;;10.37;3.67;;;10.20;99.90;;;;;;7392270;19;20134;-80
2022/09/22 06:32:38;;;;;;;8.97;4.23;;;10.20;99.90;;;;;;7394057;19;20869;-80
2022/09/22 06:35:08;;;;;;;9.00;3.87;;;10.30;99.90;;;;;;7390800;19;20143;-79
2022/09/22 06:37:42;;;;;;;7.03;3.40;;;10.20;99.90;;;;;;7393987;19;20135;-78
2022/09/22 06:40:08;;;;;;;5.97;3.10;;;10.30;99.90;;;;;;7393466;19;20879;-79
2022/09/22 06:42:35;;;;;;;8.20;3.27;;;10.20;99.90;;;;;;7394643;19;20134;-80
2022/09/22 06:45:02;;;;;;;5.20;2.70;;;10.30;99.90;;;;;;7393942;19;20158;-80
2022/09/22 06:47:37;;;;;;;5.13;2.83;;;10.20;99.90;;;;;;7394561;19;20134;-80
2022/09/22 06:50:08;;;;;;;6.87;3.53;;;9.90;99.90;;;;;;7391381;19;20130;-81
2022/09/22 06:52:35;;;;;;;12.90;6.47;;;10.20;99.90;;;;;;7391668;19;20175;-81
2022/09/22 06:55:01;;;;;;;7.73;4.97;;;10.10;99.90;;;;;;7395344;19;20157;-81
2022/09/22 06:57:31;;;;;;;4.23;3.13;;;10.10;99.90;;;;;;7394742;19;20138;-78
2022/09/22 06:59:59;;;;;;;3.50;2.60;;;10.10;99.90;;;;;;7392333;19;20142;-79
2022/09/22 07:02:27;;;;;;;5.73;3.20;;;10.20;99.90;;;;;;7393448;19;20142;-81
2022/09/22 07:05:01;;;;;;;4.83;2.80;;;9.90;99.90;;;;;;7395017;19;20157;-80
2022/09/22 07:07:27;;;;;;;4.57;2.97;;;9.90;99.90;;;;;;7392780;19;20559;-79
2022/09/22 07:09:54;;;;;;;5.50;3.50;;;10.20;99.90;;;;;;7390750;19;20265;-79
2022/09/22 07:12:21;;;;;;;9.23;3.80;;;10.50;99.90;;;;;;7394068;19;20134;-79
2022/09/22 07:14:48;;;;;;;8.70;4.50;;;10.70;99.90;;;;;;7392017;19;20310;-79
2022/09/22 07:17:17;;;;;;;9.37;5.23;;;10.60;99.90;;;;;;7393060;19;20160;-79
2022/09/22 07:19:45;;;;;;;14.63;6.13;;;10.70;99.90;;;;;;7396416;19;20138;-79
2022/09/22 07:22:14;;;;;;;8.30;4.63;;;10.80;99.90;;;;;;7394485;19;20599;-79
2022/09/22 07:24:41;;;;;;;7.33;4.87;;;10.80;99.90;;;;;;7394735;19;20518;-79
2022/09/22 07:27:17;;;;;;;15.37;5.60;;;10.90;99.90;;;;;;7393795;19;20163;-79
2022/09/22 07:29:46;;;;;;;7.70;5.00;;;10.90;99.90;;;;;;7395750;19;20546;-79
2022/09/22 07:32:12;;;;;;;10.33;5.30;;;10.90;99.90;;;;;;7392642;19;20143;-80
2022/09/22 07:34:39;;;;;;;11.27;5.33;;;10.90;99.90;;;;;;7394240;19;20145;-79
2022/09/22 07:37:05;;;;;;;12.57;4.87;;;10.90;99.90;;;;;;7392059;19;20135;-79
2022/09/22 07:39:31;;;;;;;11.70;4.97;;;11.00;99.90;;;;;;7392697;19;20169;-79
2022/09/22 07:41:56;;;;;;;15.33;4.67;;;10.90;99.90;;;;;;7392442;19;20607;-79
2022/09/22 07:47:06;;;;;;;8.33;4.73;;;11.00;99.90;;;;;;7390002;19;20153;-79
2022/09/22 07:49:32;;;;;;;6.93;3.90;;;11.10;99.90;;;;;;7392867;19;20218;-79
2022/09/22 07:51:59;;;;;;;7.90;4.43;;;11.20;99.90;;;;;;7397663;19;20616;-80
2022/09/22 07:54:26;;;;;;;9.57;4.33;;;11.30;99.90;;;;;;7390680;19;20139;-79
2022/09/22 07:56:54;;;;;;;7.70;4.10;;;11.40;99.90;;;;;;7389893;19;20149;-79
2022/09/22 07:59:20;;;;;;;6.10;4.00;;;11.40;99.90;;;;;;7390306;19;20503;-79
2022/09/22 08:01:48;;;;;;;6.93;4.83;;;11.30;99.90;;;;;;7388935;19;20592;-80
2022/09/22 08:04:17;;;;;;;7.63;4.60;;;11.40;99.90;;;;;;7390027;19;20166;-80
2022/09/22 08:06:54;;;;;;;7.93;5.20;;;11.40;99.90;;;;;;7391139;19;20147;-79
2022/09/22 08:09:20;;;;;;;9.60;5.00;;;11.50;99.90;;;;;;7400456;19;20130;-81
2022/09/22 08:11:47;;;;;;;8.13;4.97;;;11.50;99.90;;;;;;7391128;19;20149;-81
2022/09/22 08:14:16;;;;;;;7.13;4.33;;;11.60;99.90;;;;;;7390445;19;20246;-80
2022/09/22 08:16:42;;;;;;;7.87;4.00;;;11.70;99.90;;;;;;7389636;19;20954;-79
2022/09/22 08:19:11;;;;;;;7.67;4.90;;;11.80;99.90;;;;;;7389950;19;20170;-80
2022/09/22 08:21:41;;;;;;;7.57;4.93;;;12.00;99.90;;;;;;7391472;19;20166;-82
2022/09/22 08:24:09;;;;;;;6.70;4.33;;;12.10;99.90;;;;;;7390433;19;20151;-80
2022/09/22 08:26:46;;;;;;;8.93;4.77;;;12.20;99.90;;;;;;7392450;19;20139;-80
2022/09/22 08:29:12;;;;;;;8.80;5.17;;;12.30;99.90;;;;;;7390833;19;20587;-79
2022/09/22 08:31:41;;;;;;;6.53;4.57;;;12.40;99.90;;;;;;7392207;19;20139;-82
2022/09/22 08:34:08;;;;;;;6.67;4.17;;;12.40;99.90;;;;;;7395669;19;20970;-81
2022/09/22 08:36:36;;;;;;;10.30;4.00;;;12.70;99.90;;;;;;7389690;19;20150;-80
2022/09/22 08:39:02;;;;;;;8.07;4.07;;;12.90;99.90;;;;;;7391509;19;20155;-81
2022/09/22 08:41:36;;;;;;;9.30;4.53;;;13.10;99.90;;;;;;7389090;19;20597;-80
2022/09/22 08:44:18;;;;;;;7.17;4.83;;;13.20;99.90;;;;;;7398565;19;20155;-81
2022/09/22 08:46:45;;;;;;;6.73;3.97;;;13.30;99.90;;;;;;7396619;19;20131;-80
2022/09/22 08:52:30;;;;;;;5.00;3.77;;;13.40;99.90;;;;;;7391172;19;20218;-80
2022/09/22 08:54:58;;;;;;;5.53;3.30;;;13.50;99.90;;;;;;7386733;19;20483;-81
2022/09/22 08:57:33;;;;;;;5.23;3.47;;;13.30;99.90;;;;;;7391623;19;20209;-81
2022/09/22 09:00:05;;;;;;;6.00;3.50;;;13.70;99.90;;;;;;7394882;19;20154;-81
2022/09/22 09:02:44;;;;;;;4.37;3.43;;;13.90;99.90;;;;;;7396316;19;20157;-80
2022/09/22 09:05:29;;;;;;;5.57;3.40;;;14.00;99.90;;;;;;7405883;19;20159;-81
2022/09/22 09:08:01;;;;;;;6.27;3.40;;;14.10;99.90;;;;;;7397196;19;20199;-80
2022/09/22 09:11:06;;;;;;;5.57;3.20;;;14.10;99.90;;;;;;7404903;19;20142;-81
2022/09/22 09:13:57;;;;;;;5.87;3.50;;;14.20;99.90;;;;;;7389011;19;20150;-80
2022/09/22 09:16:43;;;;;;;7.37;3.00;;;14.30;99.90;;;;;;7394767;19;20567;-80
2022/09/22 09:19:26;;;;;;;4.50;2.67;;;14.40;99.90;;;;;;7397433;19;20179;-80
2022/09/22 09:21:57;;;;;;;3.63;2.73;;;14.40;99.90;;;;;;7395826;19;20130;-81
2022/09/22 09:24:48;;;;;;;7.23;2.90;;;14.50;99.90;;;;;;7394620;19;20163;-80
2022/09/22 09:27:20;;;;;;;3.63;2.30;;;14.90;99.90;;;;;;7395597;19;20153;-80
2022/09/22 09:30:09;;;;;;;2.70;2.10;;;15.10;99.90;;;;;;7397797;19;20126;-80
2022/09/22 09:32:49;;;;;;;3.55;1.70;;;15.00;99.90;;;;;;7393807;19;20722;-80
2022/09/22 09:35:30;;;;;;;3.35;1.83;;;15.10;99.90;;;;;;7396352;19;20134;-82
2022/09/22 09:37:58;;;;;;;5.13;2.67;;;15.20;99.90;;;;;;7396251;19;20127;-80
2022/09/22 09:40:24;;;;;;;3.67;2.33;;;15.30;99.90;;;;;;7395126;19;20157;-81
2022/09/22 09:43:00;;;;;;;3.78;2.35;;;15.40;99.90;;;;;;7401360;19;20130;-80
2022/09/22 09:45:36;;;;;;;9.23;2.65;;;15.20;99.90;;;;;;7399346;19;20161;-79
2022/09/22 09:48:18;;;;;;;3.60;2.83;;;15.20;99.90;;;;;;7403798;19;20213;-81
2022/09/22 09:50:44;;;;;;;2.17;1.80;;;15.40;99.90;;;;;;7393682;19;20161;-80
2022/09/22 09:53:30;;;;;;;5.57;2.50;;;15.50;99.90;;;;;;7394846;19;20126;-81
2022/09/22 09:55:57;;;;;;;4.45;2.08;;;15.60;99.90;;;;;;7396971;19;20198;-80
2022/09/22 10:01:15;;;;;;;3.55;1.80;;;15.60;99.90;;;;;;7396497;19;20584;-79
2022/09/22 10:03:53;;;;;;;3.80;2.55;;;15.70;99.90;;;;;;7410128;19;20145;-80
2022/09/22 10:06:24;;;;;;;2.70;2.17;;;15.70;99.90;;;;;;7399589;19;20485;-80
2022/09/22 10:08:50;;;;;;;2.38;1.80;;;15.80;99.90;;;;;;7392435;19;20135;-80
2022/09/22 10:11:30;;;;;;;5.32;2.92;;;16.00;99.90;;;;;;7395040;19;20495;-80
2022/09/22 10:13:56;;;;;;;4.60;1.88;;;15.90;99.90;;;;;;7394661;19;20804;-80
2022/09/22 10:16:25;;;;;;;2.85;1.48;;;16.00;99.90;;;;;;7397274;19;20139;-78
2022/09/22 10:19:20;;;;;;;1.73;1.50;;;16.00;99.90;;;;;;7395352;19;20134;-80
2022/09/22 10:21:46;;;;;;;4.13;1.88;;;16.00;99.90;;;;;;7392816;19;20168;-80
2022/09/22 10:24:30;;;;;;;2.65;1.55;;;16.00;99.90;;;;;;7394900;19;20213;-80
2022/09/22 10:26:56;;;;;;;3.25;1.30;;;16.00;99.90;;;;;;7393112;19;20127;-79
2022/09/22 10:29:23;;;;;;;3.20;1.40;;;16.20;99.90;;;;;;7394344;19;20135;-81
2022/09/22 10:31:59;;;;;;;2.35;1.00;;;16.30;99.90;;;;;;7393266;19;20142;-80
2022/09/22 10:34:35;;;;;;;2.05;1.30;;;16.40;99.90;;;;;;7396401;19;20205;-79
2022/09/22 10:37:05;;;;;;;2.20;1.42;;;16.30;99.90;;;;;;7393556;19;20150;-79
2022/09/22 10:39:49;;;;;;;1.65;1.17;;;16.40;99.90;;;;;;7394461;19;20130;-80
2022/09/22 10:42:36;;;;;;;1.48;0.80;;;16.60;99.90;;;;;;7392932;19;20130;-79
2022/09/22 10:45:05;;;;;;;1.50;0.90;;;16.70;99.90;;;;;;7392778;19;20876;-80
2022/09/22 10:47:42;;;;;;;2.13;0.85;;;16.80;99.90;;;;;;7394524;19;20614;-80
2022/09/22 10:50:34;;;;;;;1.48;0.80;;;16.90;99.90;;;;;;7395404;19;20149;-79
2022/09/22 10:53:44;;;;;;;0.95;0.63;;;17.10;99.90;;;;;;7393463;19;20447;-80
2022/09/22 10:56:31;;;;;;;0.90;0.70;;;17.00;99.90;;;;;;7396168;19;20143;-80
2022/09/22 10:59:13;;;;;;;1.05;0.80;;;16.90;99.90;;;;;;7393409;19;20161;-79
2022/09/22 11:02:00;;;;;;;1.10;0.77;;;17.10;99.90;;;;;;7395663;19;20569;-80
2022/09/22 11:05:06;;;;;;;3.20;0.80;;;17.10;99.90;;;;;;7394115;19;20131;-80
2022/09/22 11:13:56;;;;;;;1.27;0.65;;;17.40;99.90;;;;;;7393154;19;20151;-79
2022/09/22 11:16:53;;;;;;;0.50;0.50;;;17.30;99.90;;;;;;7393942;19;20563;-81
2022/09/22 11:19:37;;;;;;;1.05;0.88;;;17.40;99.90;;;;;;7392922;19;20139;-80
2022/09/22 11:22:41;;;;;;;1.60;1.00;;;17.50;99.90;;;;;;7392269;19;20603;-79
2022/09/22 11:25:20;;;;;;;1.05;0.65;;;17.60;99.90;;;;;;7389990;19;20230;-80
2022/09/22 11:28:13;;;;;;;1.08;0.65;;;17.70;99.90;;;;;;7393669;19;20236;-79
2022/09/22 11:30:45;;;;;;;0.98;0.80;;;17.60;99.90;;;;;;7392245;19;20173;-80
2022/09/22 11:33:20;;;;;;;1.15;0.75;;;17.80;99.90;;;;;;7392005;19;20612;-80
2022/09/22 11:36:07;;;;;;;0.90;0.80;;;17.70;99.90;;;;;;7393738;19;20164;-79
2022/09/22 11:38:48;;;;;;;1.83;0.70;;;17.70;99.90;;;;;;7394784;19;20170;-81
2022/09/22 11:41:25;;;;;;;1.38;1.00;;;17.70;99.90;;;;;;7392172;19;20139;-79
2022/09/22 11:44:14;;;;;;;1.83;1.00;;;17.80;99.90;;;;;;7394967;19;20153;-79
2022/09/22 11:47:06;;;;;;;1.20;1.00;;;17.70;99.90;;;;;;7393027;19;20150;-79
2022/09/22 11:50:14;;;;;;;1.40;0.80;;;17.70;99.90;;;;;;7394851;19;20218;-79
2022/09/22 11:53:25;;;;;;;0.60;0.60;;;17.90;99.50;;;;;;7390445;19;20165;-78
2022/09/22 11:56:00;;;;;;;0.65;0.60;;;18.00;99.00;;;;;;7392309;19;20150;-80
2022/09/22 11:58:28;;;;;;;1.38;0.77;;;18.10;98.70;;;;;;7392986;19;20634;-80
2022/09/22 12:01:00;;;;;;;1.55;0.70;;;18.10;98.90;;;;;;7392244;19;20150;-80
2022/09/22 12:03:31;;;;;;;1.40;0.80;;;18.10;98.80;;;;;;7393376;19;20619;-79
2022/09/22 12:06:09;;;;;;;0.90;0.90;;;18.20;98.60;;;;;;7391698;19;20473;-80
2022/09/22 12:08:52;;;;;;;2.65;1.40;;;18.20;98.30;;;;;;7391004;19;20158;-78
2022/09/22 12:11:20;;;;;;;1.90;0.80;;;18.20;98.50;;;;;;7393128;19;20580;-79
2022/09/22 12:13:49;;;;;;;0.80;0.80;;;18.30;98.00;;;;;;7391978;19;20138;-80
2022/09/22 12:16:30;;;;;;;0.60;0.60;;;18.30;98.40;;;;;;7394775;19;20135;-80
2022/09/22 12:19:45;;;;;;;1.85;0.93;;;18.40;97.60;;;;;;7394959;19;20580;-78
2022/09/22 12:22:11;;;;;;;0.93;0.70;;;18.30;98.30;;;;;;7390968;19;20169;-80
2022/09/22 12:24:38;;;;;;;0.57;0.57;;;18.30;97.80;;;;;;7392967;19;20214;-80
2022/09/22 12:27:10;;;;;;;1.58;0.93;;;18.30;97.50;;;;;;7392342;19;20153;-79
2022/09/22 12:29:37;;;;;;;0.80;0.70;;;18.40;97.80;;;;;;7392722;19;20157;-80
2022/09/22 12:32:04;;;;;;;1.00;0.80;;;18.40;97.80;;;;;;7394475;19;20503;-80
2022/09/22 12:34:36;;;;;;;1.75;0.90;;;18.60;96.90;;;;;;7400149;19;20176;-80
2022/09/22 12:37:11;;;;;;;1.33;1.00;;;18.40;97.10;;;;;;7398584;19;20157;-80
2022/09/22 12:39:46;;;;;;;0.68;0.60;;;18.50;96.80;;;;;;7400216;19;20887;-80
2022/09/22 12:42:38;;;;;;;2.28;1.00;;;18.50;97.80;;;;;;7399344;19;20178;-81
2022/09/22 12:45:33;;;;;;;2.17;1.00;;;18.60;97.00;;;;;;7400366;19;20145;-80
2022/09/22 12:48:07;;;;;;;0.95;0.75;;;18.60;96.50;;;;;;7396714;19;20154;-79
2022/09/22 12:50:37;;;;;;;1.05;0.90;;;18.50;97.50;;;;;;7398837;19;20134;-81
2022/09/22 12:53:28;;;;;;;1.90;1.00;;;18.50;97.50;;;;;;7398460;19;20599;-81
2022/09/22 12:55:55;;;;;;;1.48;0.93;;;18.50;97.60;;;;;;7399648;19;20155;-81
2022/09/22 12:58:22;;;;;;;0.70;0.70;;;18.50;97.50;;;;;;7398206;19;20158;-80
2022/09/22 13:00:49;;;;;;;1.15;0.80;;;18.60;96.20;;;;;;7401129;19;20588;-80
2022/09/22 13:03:24;;;;;;;0.75;0.75;;;18.60;96.20;;;;;;7397616;19;20143;-79
2022/09/22 13:05:55;;;;;;;1.35;1.00;;;18.60;95.00;;;;;;7400032;19;20149;-79
2022/09/22 13:08:31;;;;;;;1.13;0.88;;;18.70;95.30;;;;;;7399276;19;20156;-79
2022/09/22 13:11:02;;;;;;;1.52;0.90;;;18.80;95.60;;;;;;7398442;19;20150;-79
2022/09/22 13:13:30;;;;;;;1.15;0.75;;;18.70;95.60;;;;;;7396493;19;20167;-80
2022/09/22 13:15:58;;;;;;;2.17;1.48;;;18.60;95.30;;;;;;7397587;19;20530;-80
2022/09/22 13:18:38;;;;;;;1.52;1.10;;;18.70;95.60;;;;;;7399809;19;20138;-80
2022/09/22 13:21:13;;;;;;;2.42;1.10;;;18.70;95.80;;;;;;7397542;19;20159;-81
2022/09/22 13:23:53;;;;;;;0.73;0.70;;;18.70;95.90;;;;;;7396005;19;20603;-80
2022/09/22 13:26:33;;;;;;;1.20;0.90;;;18.70;96.10;;;;;;7397532;19;20134;-81
2022/09/22 13:29:19;;;;;;;1.02;0.68;;;18.70;95.60;;;;;;7396838;19;20130;-80
2022/09/22 13:31:50;;;;;;;1.70;0.90;;;18.70;95.30;;;;;;7395089;19;20140;-81